Time;durP1;ratioP1;P1;durP2;ratioP2;P2;SDS_P1;SDS_P2;PMS_P1;PMS_P2;Temp;Humidity;BMP_temperature;BMP_pressure;BME280_temperature;BME280_humidity;BME280_pressure;Samples;Min_cycle;Max_cycle;Signal;HPM_P1;HPM_P2
2020/12/28 00:01:58;;;;;;;1.27;0.70;;;21.10;48.60;;;;;;5032624;28;20096;-49
2020/12/28 00:04:25;;;;;;;1.58;0.60;;;21.10;48.60;;;;;;5031398;28;20670;-49
2020/12/28 00:06:51;;;;;;;0.80;0.50;;;21.10;48.80;;;;;;5032492;28;20071;-38
2020/12/28 00:09:16;;;;;;;1.45;0.70;;;21.10;48.70;;;;;;5031378;28;20045;-49
2020/12/28 00:11:42;;;;;;;1.35;0.68;;;21.10;49.00;;;;;;5032460;28;20017;-50
2020/12/28 00:14:07;;;;;;;0.80;0.52;;;21.00;48.90;;;;;;5031172;28;20033;-41
2020/12/28 00:16:33;;;;;;;0.77;0.50;;;21.00;48.90;;;;;;5032051;28;20017;-50
2020/12/28 00:18:59;;;;;;;1.23;0.70;;;21.00;48.80;;;;;;5031650;28;20034;-49
2020/12/28 00:21:25;;;;;;;1.38;0.70;;;21.00;48.80;;;;;;5030257;28;20039;-52
2020/12/28 00:23:50;;;;;;;1.63;0.52;;;21.00;49.00;;;;;;5031693;28;20038;-40
2020/12/28 00:26:16;;;;;;;0.75;0.60;;;21.00;48.90;;;;;;5031115;28;20025;-50
2020/12/28 00:28:42;;;;;;;0.68;0.52;;;21.00;49.00;;;;;;5032088;28;20097;-50
2020/12/28 00:31:09;;;;;;;0.70;0.50;;;21.00;48.90;;;;;;5029904;28;20071;-50
2020/12/28 00:33:35;;;;;;;1.88;0.60;;;21.00;48.90;;;;;;5032022;28;20052;-50
2020/12/28 00:36:00;;;;;;;1.50;0.50;;;21.00;48.90;;;;;;5031468;28;20511;-59
2020/12/28 00:38:26;;;;;;;1.98;0.45;;;21.00;48.90;;;;;;5030832;28;20034;-46
2020/12/28 00:40:52;;;;;;;0.95;0.60;;;20.90;48.90;;;;;;5031435;28;20176;-39
2020/12/28 00:43:17;;;;;;;4.25;0.50;;;20.90;48.90;;;;;;5030785;28;20021;-50
2020/12/28 00:45:43;;;;;;;1.40;0.60;;;20.90;48.90;;;;;;5031424;28;20091;-49
2020/12/28 00:48:09;;;;;;;1.15;0.60;;;20.90;49.00;;;;;;5030524;28;20075;-51
2020/12/28 00:50:34;;;;;;;3.40;0.90;;;20.90;48.90;;;;;;5031143;28;20032;-53
2020/12/28 00:53:00;;;;;;;1.55;0.65;;;20.90;49.10;;;;;;5031715;28;20109;-49
2020/12/28 00:55:25;;;;;;;0.73;0.50;;;20.90;49.00;;;;;;5030446;28;21569;-55
2020/12/28 00:57:51;;;;;;;1.90;0.55;;;20.90;48.90;;;;;;5028476;28;20025;-51
2020/12/28 01:00:17;;;;;;;1.23;0.68;;;20.90;49.00;;;;;;5031165;28;20100;-50
2020/12/28 01:02:42;;;;;;;1.15;0.60;;;20.90;49.00;;;;;;5031752;28;20531;-53
2020/12/28 01:05:08;;;;;;;1.23;0.60;;;20.90;48.90;;;;;;5030573;28;20489;-48
2020/12/28 01:07:34;;;;;;;2.13;0.98;;;20.80;48.90;;;;;;5032420;28;20025;-52
2020/12/28 01:09:59;;;;;;;1.10;0.60;;;20.80;49.00;;;;;;5032625;28;20083;-51
2020/12/28 01:12:25;;;;;;;0.65;0.50;;;20.80;49.00;;;;;;5031551;28;20200;-48
2020/12/28 01:14:51;;;;;;;0.47;0.47;;;20.80;49.00;;;;;;5031147;28;20039;-47
2020/12/28 01:17:16;;;;;;;0.95;0.57;;;20.80;49.00;;;;;;5031475;28;20383;-50
2020/12/28 01:19:42;;;;;;;1.88;0.63;;;20.80;48.90;;;;;;5032657;28;20028;-52
2020/12/28 01:22:08;;;;;;;0.85;0.50;;;20.80;48.90;;;;;;5031164;28;20026;-48
2020/12/28 01:24:33;;;;;;;1.08;0.68;;;20.80;49.00;;;;;;5032042;28;20452;-49
2020/12/28 01:26:59;;;;;;;0.98;0.50;;;20.80;49.00;;;;;;5031815;28;20034;-48
2020/12/28 01:29:24;;;;;;;1.13;0.50;;;20.80;48.90;;;;;;5030982;28;20032;-53
2020/12/28 01:31:50;;;;;;;1.02;0.57;;;20.80;49.00;;;;;;5031944;28;20033;-50
2020/12/28 01:34:16;;;;;;;1.17;0.57;;;20.80;49.00;;;;;;5030148;28;20037;-53
2020/12/28 01:36:41;;;;;;;0.63;0.45;;;20.80;49.00;;;;;;5031893;28;20048;-49
2020/12/28 01:39:07;;;;;;;3.92;0.52;;;20.80;49.00;;;;;;5030740;28;20106;-51
2020/12/28 01:41:34;;;;;;;1.50;0.60;;;20.70;49.00;;;;;;5032151;28;20040;-51
2020/12/28 01:44:00;;;;;;;0.60;0.50;;;20.70;49.00;;;;;;5031731;28;20037;-51
2020/12/28 01:46:27;;;;;;;1.00;0.52;;;20.70;49.00;;;;;;5031216;28;20646;-50
2020/12/28 01:48:53;;;;;;;4.60;1.60;;;20.70;48.90;;;;;;5031809;28;20026;-49
2020/12/28 01:51:19;;;;;;;0.65;0.50;;;20.70;49.00;;;;;;5031138;28;20512;-48
2020/12/28 01:53:45;;;;;;;0.75;0.50;;;20.70;49.00;;;;;;5031884;28;20025;-50
2020/12/28 01:56:13;;;;;;;0.98;0.57;;;20.70;49.00;;;;;;5030962;28;20025;-48
2020/12/28 01:58:39;;;;;;;1.65;0.55;;;20.70;49.00;;;;;;5032084;28;20494;-48
2020/12/28 02:01:04;;;;;;;0.95;0.40;;;20.70;49.00;;;;;;5031429;28;20025;-56
2020/12/28 02:03:30;;;;;;;0.57;0.40;;;20.70;49.00;;;;;;5031312;28;20021;-52
2020/12/28 02:05:56;;;;;;;0.70;0.52;;;20.70;49.00;;;;;;5031749;28;20037;-48
2020/12/28 02:08:22;;;;;;;0.60;0.60;;;20.70;49.00;;;;;;5030996;28;20033;-51
2020/12/28 02:10:53;;;;;;;1.40;0.60;;;20.80;49.00;;;;;;5031828;28;20063;-51
2020/12/28 02:13:18;;;;;;;0.75;0.55;;;20.70;49.00;;;;;;5030861;28;20061;-52
2020/12/28 02:15:44;;;;;;;1.15;0.60;;;20.70;49.00;;;;;;5031929;28;20072;-39
2020/12/28 02:18:10;;;;;;;1.05;0.55;;;20.70;49.10;;;;;;5031012;28;20436;-52
2020/12/28 02:20:35;;;;;;;0.52;0.40;;;20.70;49.00;;;;;;5031790;28;20483;-52
2020/12/28 02:23:01;;;;;;;0.90;0.40;;;20.70;49.00;;;;;;5031517;28;20025;-51
2020/12/28 02:25:26;;;;;;;0.77;0.40;;;20.70;49.00;;;;;;5030405;28;20065;-51
2020/12/28 02:27:52;;;;;;;0.60;0.52;;;20.70;49.00;;;;;;5030305;28;20084;-51
2020/12/28 02:30:18;;;;;;;0.80;0.52;;;20.70;49.00;;;;;;5030673;28;20512;-49
2020/12/28 02:32:43;;;;;;;1.65;0.70;;;20.70;49.00;;;;;;5030468;28;20018;-50
2020/12/28 02:35:09;;;;;;;0.77;0.60;;;20.70;49.10;;;;;;5030843;28;20032;-59
2020/12/28 02:37:35;;;;;;;0.98;0.57;;;20.70;49.10;;;;;;5031378;28;20030;-47
2020/12/28 02:40:00;;;;;;;1.08;0.43;;;20.70;49.10;;;;;;5031366;28;20050;-47
2020/12/28 02:42:26;;;;;;;0.70;0.43;;;20.70;49.10;;;;;;5032872;28;20048;-58
2020/12/28 02:44:51;;;;;;;1.05;0.43;;;20.70;49.00;;;;;;5035150;28;20037;-47
2020/12/28 02:47:17;;;;;;;0.73;0.50;;;20.70;49.10;;;;;;5034381;28;20033;-48
2020/12/28 02:49:43;;;;;;;0.82;0.50;;;20.70;49.00;;;;;;5035272;28;20026;-59
2020/12/28 02:52:08;;;;;;;0.50;0.40;;;20.70;49.10;;;;;;5033960;28;20031;-55
2020/12/28 02:54:34;;;;;;;0.40;0.40;;;20.70;49.10;;;;;;5034840;28;20025;-50
2020/12/28 02:57:00;;;;;;;0.70;0.40;;;20.70;49.10;;;;;;5034782;28;20030;-60
2020/12/28 02:59:25;;;;;;;0.40;0.40;;;20.70;49.10;;;;;;5034557;28;20091;-45
2020/12/28 03:01:51;;;;;;;0.45;0.38;;;20.70;49.10;;;;;;5034753;28;20026;-42
2020/12/28 03:04:16;;;;;;;1.20;0.70;;;20.70;49.10;;;;;;5033914;28;20140;-48
2020/12/28 03:06:42;;;;;;;1.10;0.50;;;20.70;49.10;;;;;;5034798;28;20025;-56
2020/12/28 03:09:08;;;;;;;0.95;0.50;;;20.70;49.10;;;;;;5034272;28;20030;-55
2020/12/28 03:11:36;;;;;;;0.60;0.50;;;20.70;49.10;;;;;;5033323;28;20052;-48
2020/12/28 03:14:03;;;;;;;1.52;0.32;;;20.70;49.10;;;;;;5034901;28;20036;-48
2020/12/28 03:16:29;;;;;;;0.68;0.47;;;20.70;49.10;;;;;;5033962;28;20090;-48
2020/12/28 03:18:54;;;;;;;0.95;0.50;;;20.70;49.10;;;;;;5034380;28;20108;-51
2020/12/28 03:21:20;;;;;;;0.70;0.40;;;20.70;49.10;;;;;;5033912;28;20025;-54
2020/12/28 03:23:46;;;;;;;1.35;0.50;;;20.70;49.10;;;;;;5034156;28;20029;-48
2020/12/28 03:26:12;;;;;;;0.90;0.45;;;20.70;49.10;;;;;;5032599;28;20045;-43
2020/12/28 03:28:38;;;;;;;0.43;0.32;;;20.80;49.10;;;;;;5034536;28;20025;-50
2020/12/28 03:31:03;;;;;;;1.10;0.50;;;20.80;49.10;;;;;;5034267;28;20104;-49
2020/12/28 03:33:29;;;;;;;1.25;0.50;;;20.80;49.10;;;;;;5033346;28;20028;-48
2020/12/28 03:35:54;;;;;;;1.40;0.50;;;20.80;49.10;;;;;;5034376;28;20486;-49
2020/12/28 03:38:20;;;;;;;0.88;0.50;;;20.80;49.10;;;;;;5033434;28;20025;-52
2020/12/28 03:40:46;;;;;;;0.77;0.40;;;20.80;49.10;;;;;;5034031;28;20410;-52
2020/12/28 03:43:12;;;;;;;0.57;0.55;;;20.80;49.10;;;;;;5033170;28;20029;-48
2020/12/28 03:45:37;;;;;;;0.60;0.50;;;20.80;49.10;;;;;;5034180;28;20434;-53
2020/12/28 03:48:03;;;;;;;1.25;0.50;;;20.80;49.10;;;;;;5034498;28;20103;-49
2020/12/28 03:50:28;;;;;;;0.40;0.40;;;20.80;49.10;;;;;;5033401;28;20104;-49
2020/12/28 03:52:54;;;;;;;0.88;0.60;;;20.80;49.10;;;;;;5033325;28;20076;-51
2020/12/28 03:55:20;;;;;;;0.50;0.50;;;20.80;49.10;;;;;;5032767;28;20041;-49
2020/12/28 03:57:45;;;;;;;0.80;0.40;;;20.80;49.10;;;;;;5034161;28;20045;-40
2020/12/28 04:00:11;;;;;;;1.17;0.43;;;20.80;49.10;;;;;;5032980;28;20033;-56
2020/12/28 04:02:38;;;;;;;1.30;0.45;;;20.80;49.10;;;;;;5049007;28;20029;-48
2020/12/28 04:05:05;;;;;;;1.02;0.50;;;20.80;49.10;;;;;;5033937;28;20022;-48
2020/12/28 04:07:31;;;;;;;0.93;0.50;;;20.80;49.10;;;;;;5032902;28;20040;-44
2020/12/28 04:09:57;;;;;;;0.47;0.40;;;20.80;49.10;;;;;;5033625;28;20026;-48
2020/12/28 04:12:22;;;;;;;0.77;0.40;;;20.80;49.10;;;;;;5032712;28;20160;-50
2020/12/28 04:14:48;;;;;;;0.60;0.40;;;20.80;49.10;;;;;;5033634;28;20064;-48
2020/12/28 04:17:14;;;;;;;0.70;0.45;;;20.80;49.10;;;;;;5031728;28;20056;-48
2020/12/28 04:19:39;;;;;;;0.65;0.45;;;20.80;49.10;;;;;;5033601;28;20025;-49
2020/12/28 04:22:05;;;;;;;0.55;0.50;;;20.80;49.10;;;;;;5032189;28;20028;-44
2020/12/28 04:24:31;;;;;;;0.60;0.40;;;20.80;49.10;;;;;;5030894;28;20613;-39
2020/12/28 04:26:56;;;;;;;0.80;0.30;;;20.80;49.10;;;;;;5033623;28;20163;-48
2020/12/28 04:29:22;;;;;;;0.88;0.40;;;20.80;49.10;;;;;;5032491;28;20029;-47
2020/12/28 04:31:47;;;;;;;2.20;0.50;;;20.80;49.10;;;;;;5033379;28;20413;-42
2020/12/28 04:34:13;;;;;;;0.90;0.52;;;20.80;49.10;;;;;;5032401;28;20118;-52
2020/12/28 04:36:39;;;;;;;0.50;0.40;;;20.80;49.10;;;;;;5032966;28;20022;-61
2020/12/28 04:39:06;;;;;;;0.77;0.40;;;20.80;49.10;;;;;;5032703;28;20033;-48
2020/12/28 04:41:32;;;;;;;1.00;0.50;;;20.80;49.10;;;;;;5032350;28;20028;-44
2020/12/28 04:43:58;;;;;;;0.80;0.40;;;20.80;49.10;;;;;;5032973;28;20099;-52
2020/12/28 04:46:29;;;;;;;4.78;0.68;;;20.80;49.10;;;;;;5032300;28;20033;-53
2020/12/28 04:48:55;;;;;;;0.80;0.50;;;20.80;49.10;;;;;;5033225;28;20028;-48
2020/12/28 04:51:22;;;;;;;0.32;0.30;;;20.80;49.10;;;;;;5031942;28;20799;-58
2020/12/28 04:53:51;;;;;;;0.70;0.45;;;20.80;49.10;;;;;;5031444;28;20108;-47
2020/12/28 04:56:18;;;;;;;0.68;0.40;;;20.80;49.10;;;;;;5031929;28;20030;-48
2020/12/28 04:58:43;;;;;;;0.55;0.50;;;20.80;49.20;;;;;;5032847;28;20026;-50
2020/12/28 05:01:09;;;;;;;0.90;0.50;;;20.80;49.10;;;;;;5033028;28;20026;-51
2020/12/28 05:03:35;;;;;;;0.50;0.40;;;20.80;49.20;;;;;;5031654;28;20057;-50
2020/12/28 05:06:00;;;;;;;0.80;0.63;;;20.80;49.20;;;;;;5032012;28;20045;-50
2020/12/28 05:08:26;;;;;;;0.57;0.43;;;20.80;49.20;;;;;;5031594;28;20486;-50
2020/12/28 05:10:52;;;;;;;1.02;0.40;;;20.80;49.20;;;;;;5032603;28;20029;-47
2020/12/28 05:13:18;;;;;;;0.47;0.40;;;20.80;49.20;;;;;;5031848;28;20033;-51
2020/12/28 05:15:51;;;;;;;8.75;1.25;;;20.70;49.80;;;;;;5032602;28;20060;-53
2020/12/28 05:18:19;;;;;;;2.95;0.40;;;20.80;49.20;;;;;;5030366;28;20374;-51
2020/12/28 05:20:47;;;;;;;1.35;0.60;;;20.80;49.20;;;;;;5032482;28;20025;-49
2020/12/28 05:23:14;;;;;;;0.70;0.40;;;20.80;49.20;;;;;;5032240;28;20025;-59
2020/12/28 05:25:43;;;;;;;0.40;0.30;;;20.80;49.20;;;;;;5032188;28;20463;-52
2020/12/28 05:28:14;;;;;;;0.80;0.40;;;20.80;49.20;;;;;;5032144;28;20038;-52
2020/12/28 05:30:43;;;;;;;0.70;0.40;;;20.80;49.20;;;;;;5032191;28;20021;-50
2020/12/28 05:33:11;;;;;;;0.57;0.30;;;20.80;49.20;;;;;;5032278;28;20041;-48
2020/12/28 05:35:37;;;;;;;0.65;0.38;;;20.80;49.20;;;;;;5031425;28;20029;-49
2020/12/28 05:38:04;;;;;;;0.57;0.35;;;20.80;49.20;;;;;;5032116;28;20087;-50
2020/12/28 05:40:31;;;;;;;1.02;0.40;;;20.80;49.20;;;;;;5031222;28;20137;-60
2020/12/28 05:42:57;;;;;;;1.85;0.50;;;20.80;49.20;;;;;;5031946;28;20123;-49
2020/12/28 05:45:23;;;;;;;1.13;0.73;;;20.80;49.10;;;;;;5031218;28;20061;-48
2020/12/28 05:47:57;;;;;;;0.85;0.50;;;20.80;49.10;;;;;;5031923;28;20490;-50
2020/12/28 05:50:31;;;;;;;1.13;0.30;;;20.80;49.10;;;;;;5031296;28;20040;-51
2020/12/28 05:52:58;;;;;;;0.82;0.32;;;20.80;49.10;;;;;;5031874;28;20497;-53
2020/12/28 05:55:26;;;;;;;0.90;0.65;;;20.80;49.10;;;;;;5031366;28;20521;-52
2020/12/28 05:57:55;;;;;;;0.80;0.50;;;20.80;49.10;;;;;;5031847;28;20026;-55
2020/12/28 06:00:21;;;;;;;0.50;0.40;;;20.80;49.10;;;;;;5031058;28;20052;-46
2020/12/28 06:02:47;;;;;;;0.60;0.40;;;20.80;49.10;;;;;;5031981;28;20040;-48
2020/12/28 06:05:20;;;;;;;1.13;0.30;;;20.80;49.10;;;;;;5031539;28;20112;-54
2020/12/28 06:07:46;;;;;;;0.95;0.40;;;20.80;49.10;;;;;;5031836;28;20072;-54
2020/12/28 06:10:13;;;;;;;0.50;0.32;;;20.80;49.10;;;;;;5031917;28;20029;-55
2020/12/28 06:12:40;;;;;;;1.55;0.35;;;20.80;49.10;;;;;;5031436;28;20060;-55
2020/12/28 06:15:21;;;;;;;0.93;0.40;;;20.80;49.10;;;;;;5031872;28;20029;-48
2020/12/28 06:17:47;;;;;;;0.70;0.32;;;20.80;49.10;;;;;;5018326;28;20025;-49
2020/12/28 06:20:14;;;;;;;0.45;0.30;;;20.80;49.00;;;;;;5035332;28;20025;-58
2020/12/28 06:22:41;;;;;;;0.40;0.30;;;20.80;49.10;;;;;;5035543;28;20049;-44
2020/12/28 06:25:16;;;;;;;1.10;0.50;;;20.80;49.10;;;;;;5035341;28;20029;-47
2020/12/28 06:27:45;;;;;;;1.55;0.40;;;20.80;49.00;;;;;;5035355;28;20037;-43
2020/12/28 06:30:19;;;;;;;0.93;0.40;;;20.80;49.00;;;;;;5035327;28;20040;-47
2020/12/28 06:32:48;;;;;;;0.82;0.82;;;20.80;49.00;;;;;;5035734;28;20036;-48
2020/12/28 06:35:16;;;;;;;1.08;0.40;;;20.80;49.00;;;;;;5034916;28;20475;-55
2020/12/28 06:37:53;;;;;;;0.50;0.30;;;20.80;49.00;;;;;;5034510;28;20028;-48
2020/12/28 06:40:44;;;;;;;0.95;0.40;;;20.80;49.00;;;;;;5034240;28;20115;-48
2020/12/28 06:43:16;;;;;;;0.50;0.50;;;20.80;49.00;;;;;;5035300;28;20029;-40
2020/12/28 06:45:44;;;;;;;1.35;0.30;;;20.80;49.00;;;;;;5035221;28;20057;-48
2020/12/28 06:48:24;;;;;;;0.43;0.30;;;20.90;49.00;;;;;;5035319;28;20029;-46
2020/12/28 06:50:52;;;;;;;1.20;0.50;;;20.80;49.00;;;;;;5033572;28;20084;-47
2020/12/28 06:53:27;;;;;;;0.80;0.40;;;20.80;49.00;;;;;;5033188;28;20072;-51
2020/12/28 06:55:53;;;;;;;0.20;0.20;;;20.80;49.00;;;;;;5031922;28;20557;-41
2020/12/28 06:58:19;;;;;;;0.95;0.50;;;20.80;48.90;;;;;;5032518;28;20109;-51
2020/12/28 07:00:45;;;;;;;1.33;0.57;;;20.80;48.90;;;;;;5033645;28;20032;-48
2020/12/28 07:03:15;;;;;;;0.30;0.30;;;20.90;49.00;;;;;;5033393;28;20022;-48
2020/12/28 07:05:41;;;;;;;0.43;0.30;;;20.90;49.00;;;;;;5033177;28;20049;-51
2020/12/28 07:08:07;;;;;;;0.80;0.50;;;20.80;48.90;;;;;;5033364;28;20022;-49
2020/12/28 07:10:32;;;;;;;0.60;0.40;;;20.80;48.90;;;;;;5032391;28;20103;-38
2020/12/28 07:13:02;;;;;;;0.73;0.35;;;20.80;48.90;;;;;;5033100;28;20489;-45
2020/12/28 07:15:28;;;;;;;0.57;0.43;;;20.90;49.00;;;;;;5030121;28;20037;-54
2020/12/28 07:17:54;;;;;;;1.98;0.38;;;20.80;48.90;;;;;;5033765;28;20477;-51
2020/12/28 07:20:20;;;;;;;1.27;0.40;;;20.80;48.90;;;;;;5032421;28;20017;-39
2020/12/28 07:22:45;;;;;;;1.80;0.30;;;20.80;48.90;;;;;;5031071;28;20547;-48
2020/12/28 07:25:12;;;;;;;0.20;0.20;;;20.80;48.80;;;;;;5032899;28;20033;-52
2020/12/28 07:27:40;;;;;;;0.60;0.38;;;20.90;48.90;;;;;;5031721;28;20164;-54
2020/12/28 07:30:12;;;;;;;2.35;0.38;;;20.80;48.90;;;;;;5030420;28;20022;-51
2020/12/28 07:32:39;;;;;;;0.80;0.38;;;20.90;48.90;;;;;;5031182;28;20579;-46
2020/12/28 07:35:05;;;;;;;0.65;0.40;;;20.90;48.90;;;;;;5033069;28;20103;-41
2020/12/28 07:37:32;;;;;;;1.17;0.30;;;20.90;48.80;;;;;;5031950;28;20470;-48
2020/12/28 07:39:58;;;;;;;3.72;0.40;;;20.90;48.90;;;;;;5032939;28;20045;-59
2020/12/28 07:42:27;;;;;;;1.50;0.40;;;20.90;48.90;;;;;;5031981;28;20018;-51
2020/12/28 07:44:57;;;;;;;0.98;0.47;;;20.90;49.50;;;;;;5032496;28;20033;-39
2020/12/28 07:47:31;;;;;;;1.23;0.40;;;20.80;48.80;;;;;;5029322;28;20033;-44
2020/12/28 07:50:01;;;;;;;3.38;0.50;;;20.80;48.80;;;;;;5034207;28;20352;-51
2020/12/28 07:52:28;;;;;;;0.98;0.30;;;20.80;48.80;;;;;;5033391;28;20053;-51
2020/12/28 07:55:20;;;;;;;1.77;0.50;;;20.90;48.90;;;;;;5034251;28;20080;-47
2020/12/28 07:58:09;;;;;;;2.38;0.40;;;20.90;48.90;;;;;;5033284;28;20081;-53
2020/12/28 08:00:48;;;;;;;1.48;0.32;;;20.90;48.80;;;;;;5031623;28;20394;-51
2020/12/28 08:03:49;;;;;;;1.90;0.57;;;20.90;48.80;;;;;;5033660;28;20026;-50
2020/12/28 08:06:18;;;;;;;4.20;0.55;;;20.90;48.70;;;;;;5033456;28;20037;-55
2020/12/28 08:08:43;;;;;;;0.57;0.28;;;21.00;48.60;;;;;;5031512;28;20509;-47
2020/12/28 08:11:10;;;;;;;1.98;0.40;;;21.10;48.60;;;;;;5033075;28;20053;-51
2020/12/28 08:13:37;;;;;;;1.35;0.30;;;21.10;48.60;;;;;;5031902;28;20025;-47
2020/12/28 08:16:14;;;;;;;0.57;0.32;;;21.10;48.50;;;;;;5032759;28;20021;-52
2020/12/28 08:18:55;;;;;;;2.08;0.47;;;21.10;48.40;;;;;;5031115;28;20083;-47
2020/12/28 08:21:25;;;;;;;1.92;0.60;;;21.20;48.70;;;;;;5032529;28;20026;-53
2020/12/28 08:23:54;;;;;;;6.05;0.70;;;21.20;48.50;;;;;;5033075;28;20493;-45
2020/12/28 08:26:26;;;;;;;1.75;0.30;;;21.20;48.40;;;;;;5032554;28;20033;-53
2020/12/28 08:29:00;;;;;;;2.20;0.30;;;21.20;48.40;;;;;;5033230;28;20116;-48
2020/12/28 08:31:34;;;;;;;5.13;0.70;;;21.30;48.40;;;;;;5032061;28;20283;-46
2020/12/28 08:34:13;;;;;;;3.33;0.65;;;21.30;48.40;;;;;;5033220;28;20025;-50
2020/12/28 08:36:51;;;;;;;8.88;1.00;;;21.30;48.40;;;;;;5032095;28;20064;-47
2020/12/28 08:39:20;;;;;;;4.68;0.57;;;21.40;48.60;;;;;;5032421;28;20021;-57
2020/12/28 08:42:25;;;;;;;0.95;0.40;;;21.40;48.80;;;;;;5033207;28;20060;-48
2020/12/28 08:44:50;;;;;;;6.85;1.63;;;21.50;48.80;;;;;;5024012;28;20045;-57
2020/12/28 08:47:16;;;;;;;8.18;1.17;;;21.60;49.80;;;;;;5033045;28;20129;-54
2020/12/28 08:49:45;;;;;;;10.38;1.33;;;21.60;50.70;;;;;;5032990;28;20026;-45
2020/12/28 08:52:17;;;;;;;22.77;2.00;;;21.70;50.30;;;;;;5032642;28;20036;-44
2020/12/28 08:54:53;;;;;;;12.40;1.20;;;21.70;51.50;;;;;;5032281;28;20118;-44
2020/12/28 08:57:24;;;;;;;4.25;1.10;;;21.70;51.70;;;;;;5031908;28;20056;-58
2020/12/28 09:00:00;;;;;;;2.33;0.98;;;21.70;52.20;;;;;;5130437;27;20418;-45
2020/12/28 09:02:27;;;;;;;3.67;1.65;;;21.70;52.30;;;;;;5130646;28;20023;-44
2020/12/28 09:04:54;;;;;;;2.70;0.80;;;21.80;51.70;;;;;;5141093;27;20097;-48
2020/12/28 09:07:22;;;;;;;2.45;0.80;;;21.80;51.60;;;;;;5136785;27;20525;-57
2020/12/28 09:09:48;;;;;;;5.50;0.90;;;21.80;51.60;;;;;;5129990;28;20077;-43
2020/12/28 09:12:17;;;;;;;2.53;0.70;;;21.80;51.60;;;;;;5129841;28;20023;-43
2020/12/28 09:14:43;;;;;;;3.63;0.70;;;21.70;51.40;;;;;;5129270;28;20102;-41
2020/12/28 09:17:09;;;;;;;5.43;0.77;;;21.80;51.60;;;;;;5128421;28;20119;-47
2020/12/28 09:19:36;;;;;;;3.92;0.88;;;21.80;51.40;;;;;;5128837;28;20384;-48
2020/12/28 09:22:03;;;;;;;4.35;0.73;;;21.80;51.30;;;;;;5129768;28;20030;-47
2020/12/28 09:24:29;;;;;;;2.65;1.10;;;21.80;51.10;;;;;;5128897;28;20027;-45
2020/12/28 09:26:57;;;;;;;4.35;0.70;;;21.80;51.10;;;;;;5145766;27;20031;-52
2020/12/28 09:29:23;;;;;;;3.92;0.73;;;21.80;51.10;;;;;;5128660;28;20059;-55
2020/12/28 09:31:49;;;;;;;2.13;0.70;;;21.80;50.90;;;;;;5129697;28;20114;-43
2020/12/28 09:34:15;;;;;;;3.15;0.70;;;21.80;50.90;;;;;;5129341;27;20019;-39
2020/12/28 09:36:41;;;;;;;5.65;0.80;;;21.80;50.80;;;;;;5128855;27;20027;-42
2020/12/28 09:39:07;;;;;;;3.10;0.80;;;21.80;50.90;;;;;;5129459;27;20032;-46
2020/12/28 09:41:34;;;;;;;3.78;1.20;;;21.80;50.80;;;;;;5128059;27;20142;-45
2020/12/28 09:44:00;;;;;;;9.30;1.15;;;21.80;50.80;;;;;;5129251;28;20492;-45
2020/12/28 09:46:27;;;;;;;5.28;0.90;;;21.90;50.90;;;;;;5128378;28;20024;-42
2020/12/28 09:48:53;;;;;;;4.85;0.88;;;21.90;50.60;;;;;;5129091;28;20026;-42
2020/12/28 09:51:18;;;;;;;4.55;0.90;;;22.00;50.50;;;;;;5129135;28;20031;-57
2020/12/28 09:53:44;;;;;;;5.10;0.70;;;22.00;50.50;;;;;;5128438;28;20132;-43
2020/12/28 09:56:10;;;;;;;4.13;0.90;;;21.90;50.40;;;;;;5129329;28;20023;-45
2020/12/28 09:58:36;;;;;;;5.15;1.45;;;21.90;50.40;;;;;;5127836;28;20120;-45
2020/12/28 10:01:05;;;;;;;1.85;0.63;;;21.90;50.30;;;;;;5129041;28;20085;-47
2020/12/28 10:03:31;;;;;;;3.95;0.60;;;22.00;50.30;;;;;;5127972;27;20027;-40
2020/12/28 10:05:56;;;;;;;4.20;0.95;;;21.90;50.50;;;;;;5128801;27;20380;-43
2020/12/28 10:08:22;;;;;;;4.38;0.80;;;21.90;50.40;;;;;;5127193;28;20053;-57
2020/12/28 10:10:48;;;;;;;2.83;0.60;;;21.90;50.30;;;;;;5116882;28;20457;-40
2020/12/28 10:13:14;;;;;;;1.08;0.70;;;21.90;50.20;;;;;;5114006;28;20055;-41
2020/12/28 10:15:40;;;;;;;4.60;0.65;;;21.90;50.40;;;;;;5126713;27;20023;-43
2020/12/28 10:18:31;;;;;;;6.10;0.70;;;21.90;50.40;;;;;;5135255;27;20031;-44
2020/12/28 10:20:57;;;;;;;3.38;0.60;;;21.90;50.10;;;;;;5119839;27;20499;-45
2020/12/28 10:23:22;;;;;;;2.53;0.60;;;21.90;50.20;;;;;;5135298;27;20027;-55
2020/12/28 10:25:48;;;;;;;3.03;0.95;;;21.90;50.10;;;;;;5135513;27;20027;-44
2020/12/28 10:28:14;;;;;;;1.90;0.70;;;21.90;50.00;;;;;;5135541;27;20035;-44
2020/12/28 10:30:39;;;;;;;1.52;0.60;;;21.90;50.00;;;;;;5134543;27;20039;-46
2020/12/28 10:33:05;;;;;;;1.55;0.65;;;21.90;50.00;;;;;;5135239;27;20122;-45
2020/12/28 10:35:31;;;;;;;2.95;0.57;;;22.00;50.10;;;;;;5116352;27;20095;-46
2020/12/28 10:37:56;;;;;;;2.05;0.70;;;22.00;49.90;;;;;;5115048;28;20058;-48
2020/12/28 10:40:22;;;;;;;5.70;0.85;;;21.90;49.90;;;;;;5114804;28;20426;-53
2020/12/28 10:42:48;;;;;;;0.80;0.50;;;22.00;49.90;;;;;;5114372;28;20020;-46
2020/12/28 10:45:13;;;;;;;3.50;0.60;;;22.00;49.90;;;;;;5114281;28;20434;-44
2020/12/28 10:47:39;;;;;;;3.30;0.80;;;22.00;49.80;;;;;;5113372;28;20050;-43
2020/12/28 10:50:05;;;;;;;5.68;0.70;;;21.90;49.70;;;;;;5114637;28;20020;-47
2020/12/28 10:52:30;;;;;;;2.78;0.60;;;22.00;49.90;;;;;;5113757;28;20103;-44
2020/12/28 10:54:56;;;;;;;1.73;0.70;;;21.90;49.90;;;;;;5114553;28;20063;-42
2020/12/28 10:57:22;;;;;;;2.78;0.77;;;21.90;49.70;;;;;;5114326;28;20027;-54
2020/12/28 10:59:47;;;;;;;1.00;0.45;;;21.90;49.80;;;;;;5113196;28;20385;-43
2020/12/28 11:02:13;;;;;;;1.20;0.60;;;21.90;49.80;;;;;;5114401;28;20027;-41
2020/12/28 11:04:38;;;;;;;1.45;0.65;;;21.90;49.60;;;;;;5113149;28;20026;-45
2020/12/28 11:07:04;;;;;;;4.68;0.85;;;21.90;49.60;;;;;;5113016;28;20030;-37
2020/12/28 11:09:30;;;;;;;2.30;0.70;;;21.90;49.80;;;;;;5113373;28;20422;-44
2020/12/28 11:11:55;;;;;;;1.13;0.50;;;21.90;49.60;;;;;;5113268;28;20472;-43
2020/12/28 11:14:21;;;;;;;2.63;0.80;;;21.90;49.60;;;;;;5114440;28;20057;-41
2020/12/28 11:16:47;;;;;;;0.95;0.70;;;21.90;49.60;;;;;;5112254;28;20070;-43
2020/12/28 11:19:13;;;;;;;1.35;0.40;;;21.90;49.60;;;;;;5113559;28;20035;-43
2020/12/28 11:21:38;;;;;;;3.03;0.65;;;21.90;49.50;;;;;;5111342;28;20051;-43
2020/12/28 11:24:04;;;;;;;2.45;0.55;;;21.90;49.50;;;;;;5114213;28;20027;-49
2020/12/28 11:26:34;;;;;;;2.97;0.60;;;21.90;49.60;;;;;;5113112;28;20019;-46
2020/12/28 11:29:02;;;;;;;6.90;0.85;;;21.90;49.60;;;;;;5113577;28;20042;-44
2020/12/28 11:31:28;;;;;;;1.00;0.60;;;21.80;49.60;;;;;;5112669;28;20076;-52
2020/12/28 11:33:54;;;;;;;3.08;0.63;;;21.80;48.90;;;;;;5113053;28;20023;-44
2020/12/28 11:36:20;;;;;;;6.30;0.75;;;21.80;49.10;;;;;;5113988;28;20111;-57
2020/12/28 11:38:46;;;;;;;4.20;0.50;;;21.80;48.70;;;;;;5111675;28;20045;-44
2020/12/28 11:41:13;;;;;;;4.72;0.60;;;21.80;47.70;;;;;;5112786;28;20540;-53
2020/12/28 11:43:39;;;;;;;5.93;0.60;;;21.70;47.80;;;;;;5111317;28;20058;-45
2020/12/28 11:46:07;;;;;;;5.72;1.13;;;21.70;47.80;;;;;;5112828;28;20066;-42
2020/12/28 11:48:33;;;;;;;4.20;1.45;;;21.70;48.00;;;;;;5111376;28;20027;-46
2020/12/28 11:50:59;;;;;;;8.88;2.05;;;21.70;48.00;;;;;;5112617;28;20190;-45
2020/12/28 11:53:25;;;;;;;5.03;1.30;;;21.80;48.40;;;;;;5112183;28;20031;-57
2020/12/28 11:58:36;;;;;;;5.72;1.90;;;21.70;48.70;;;;;;5129275;27;20138;-46
2020/12/28 12:01:11;;;;;;;7.13;1.30;;;21.80;47.90;;;;;;5133919;27;20031;-53
2020/12/28 12:03:37;;;;;;;3.60;1.10;;;21.80;47.80;;;;;;5131639;27;20023;-46
2020/12/28 12:06:03;;;;;;;11.20;6.53;;;21.70;47.60;;;;;;5112606;28;20023;-43
2020/12/28 12:08:29;;;;;;;36.10;29.95;;;21.60;47.90;;;;;;5111775;28;20031;-54
2020/12/28 12:10:55;;;;;;;34.28;28.02;;;21.60;48.10;;;;;;5112404;28;20023;-46
2020/12/28 12:13:21;;;;;;;23.20;17.45;;;21.60;48.20;;;;;;5112863;28;20024;-47
2020/12/28 12:15:48;;;;;;;25.60;21.33;;;21.60;47.80;;;;;;5112178;28;20023;-47
2020/12/28 12:18:14;;;;;;;27.00;19.27;;;21.60;48.20;;;;;;5111541;28;20028;-47
2020/12/28 12:20:41;;;;;;;22.77;17.75;;;21.60;48.20;;;;;;5111716;28;20032;-46
2020/12/28 12:23:07;;;;;;;22.70;17.25;;;21.50;48.20;;;;;;5112849;28;20020;-41
2020/12/28 12:25:33;;;;;;;22.20;17.10;;;21.60;48.40;;;;;;5111886;28;20031;-47
2020/12/28 12:27:59;;;;;;;19.00;16.98;;;21.60;48.50;;;;;;5112429;28;20057;-45
2020/12/28 12:30:25;;;;;;;20.45;15.65;;;21.60;48.60;;;;;;5112344;28;20063;-50
2020/12/28 12:32:51;;;;;;;20.58;15.40;;;21.60;48.60;;;;;;5111678;28;20467;-47
2020/12/28 12:35:17;;;;;;;17.40;15.07;;;21.50;48.60;;;;;;5112180;28;20090;-48
2020/12/28 12:37:43;;;;;;;19.13;14.93;;;21.60;48.80;;;;;;5111785;28;20103;-45
2020/12/28 12:40:08;;;;;;;17.50;14.60;;;21.50;48.70;;;;;;5112353;28;20142;-48
2020/12/28 12:42:34;;;;;;;15.98;14.25;;;21.60;48.70;;;;;;5111751;28;20032;-51
2020/12/28 12:45:00;;;;;;;17.25;14.23;;;21.60;48.60;;;;;;5112517;28;20028;-51
2020/12/28 12:47:25;;;;;;;19.33;13.63;;;21.60;48.80;;;;;;5112129;28;20110;-48
2020/12/28 12:49:51;;;;;;;20.15;14.23;;;21.60;48.70;;;;;;5111608;28;20031;-50